sensor_id;sensor_type;location;lat;lon;timestamp;P1;durP1;ratioP1;P2;durP2;ratioP2
77280;SDS011;66339;47.262;17.144;2023-04-03T00:02:17;3.25;;;1.20;;
77280;SDS011;66339;47.262;17.144;2023-04-03T00:04:48;3.10;;;1.60;;
77280;SDS011;66339;47.262;17.144;2023-04-03T00:07:19;2.70;;;1.37;;
77280;SDS011;66339;47.262;17.144;2023-04-03T00:09:53;2.25;;;1.17;;
77280;SDS011;66339;47.262;17.144;2023-04-03T00:12:24;2.67;;;1.40;;
77280;SDS011;66339;47.262;17.144;2023-04-03T00:14:52;2.25;;;1.30;;
77280;SDS011;66339;47.262;17.144;2023-04-03T00:17:27;2.65;;;1.35;;
77280;SDS011;66339;47.262;17.144;2023-04-03T00:20:03;3.20;;;1.50;;
77280;SDS011;66339;47.262;17.144;2023-04-03T00:22:35;2.87;;;1.40;;
77280;SDS011;66339;47.262;17.144;2023-04-03T00:25:05;2.37;;;1.35;;
77280;SDS011;66339;47.262;17.144;2023-04-03T00:27:39;2.60;;;1.30;;
77280;SDS011;66339;47.262;17.144;2023-04-03T00:30:08;4.85;;;1.65;;
77280;SDS011;66339;47.262;17.144;2023-04-03T00:32:40;4.32;;;1.60;;
77280;SDS011;66339;47.262;17.144;2023-04-03T00:35:11;2.75;;;1.20;;
77280;SDS011;66339;47.262;17.144;2023-04-03T00:37:45;2.87;;;1.25;;
77280;SDS011;66339;47.262;17.144;2023-04-03T00:40:14;3.92;;;1.50;;
77280;SDS011;66339;47.262;17.144;2023-04-03T00:42:45;2.03;;;1.10;;
77280;SDS011;66339;47.262;17.144;2023-04-03T00:47:45;2.72;;;1.17;;
77280;SDS011;66339;47.262;17.144;2023-04-03T00:50:13;1.52;;;1.02;;
77280;SDS011;66339;47.262;17.144;2023-04-03T00:55:18;2.22;;;1.30;;
77280;SDS011;66339;47.262;17.144;2023-04-03T00:57:46;1.77;;;1.30;;
77280;SDS011;66339;47.262;17.144;2023-04-03T01:00:19;1.83;;;1.33;;
77280;SDS011;66339;47.262;17.144;2023-04-03T01:02:48;1.75;;;1.12;;
77280;SDS011;66339;47.262;17.144;2023-04-03T01:05:26;2.58;;;1.23;;
77280;SDS011;66339;47.262;17.144;2023-04-03T01:07:54;2.72;;;1.40;;
77280;SDS011;66339;47.262;17.144;2023-04-03T01:10:28;3.08;;;1.45;;
77280;SDS011;66339;47.262;17.144;2023-04-03T01:13:02;3.42;;;1.35;;
77280;SDS011;66339;47.262;17.144;2023-04-03T01:15:57;2.15;;;1.30;;
77280;SDS011;66339;47.262;17.144;2023-04-03T01:18:34;1.77;;;1.20;;
77280;SDS011;66339;47.262;17.144;2023-04-03T01:24:22;1.52;;;1.10;;
77280;SDS011;66339;47.262;17.144;2023-04-03T01:27:04;2.22;;;1.30;;
77280;SDS011;66339;47.262;17.144;2023-04-03T01:29:40;2.03;;;1.10;;
77280;SDS011;66339;47.262;17.144;2023-04-03T01:32:13;1.62;;;1.30;;
77280;SDS011;66339;47.262;17.144;2023-04-03T01:34:40;1.85;;;1.10;;
77280;SDS011;66339;47.262;17.144;2023-04-03T01:37:10;2.50;;;1.30;;
77280;SDS011;66339;47.262;17.144;2023-04-03T01:39:44;2.28;;;1.30;;
77280;SDS011;66339;47.262;17.144;2023-04-03T01:42:14;3.37;;;1.00;;
77280;SDS011;66339;47.262;17.144;2023-04-03T01:44:45;1.98;;;1.30;;
77280;SDS011;66339;47.262;17.144;2023-04-03T01:47:19;2.05;;;1.27;;
77280;SDS011;66339;47.262;17.144;2023-04-03T01:49:50;1.87;;;1.17;;
77280;SDS011;66339;47.262;17.144;2023-04-03T01:52:23;3.75;;;1.30;;
77280;SDS011;66339;47.262;17.144;2023-04-03T01:54:54;1.83;;;1.30;;
77280;SDS011;66339;47.262;17.144;2023-04-03T01:57:28;1.65;;;1.05;;
77280;SDS011;66339;47.262;17.144;2023-04-03T01:59:58;1.52;;;1.00;;
77280;SDS011;66339;47.262;17.144;2023-04-03T02:02:29;1.70;;;1.10;;
77280;SDS011;66339;47.262;17.144;2023-04-03T02:05:01;1.48;;;1.10;;
77280;SDS011;66339;47.262;17.144;2023-04-03T02:07:31;1.48;;;1.23;;
77280;SDS011;66339;47.262;17.144;2023-04-03T02:10:05;2.00;;;1.20;;
77280;SDS011;66339;47.262;17.144;2023-04-03T02:12:34;3.00;;;1.33;;
77280;SDS011;66339;47.262;17.144;2023-04-03T02:15:11;1.62;;;1.05;;
77280;SDS011;66339;47.262;17.144;2023-04-03T02:17:47;2.17;;;1.17;;
77280;SDS011;66339;47.262;17.144;2023-04-03T02:20:20;2.00;;;1.23;;
77280;SDS011;66339;47.262;17.144;2023-04-03T02:22:50;2.50;;;1.08;;
77280;SDS011;66339;47.262;17.144;2023-04-03T02:25:24;1.37;;;1.20;;
77280;SDS011;66339;47.262;17.144;2023-04-03T02:27:51;2.22;;;1.33;;
77280;SDS011;66339;47.262;17.144;2023-04-03T02:30:24;1.97;;;1.37;;
77280;SDS011;66339;47.262;17.144;2023-04-03T02:32:58;1.20;;;1.00;;
77280;SDS011;66339;47.262;17.144;2023-04-03T02:35:32;1.73;;;1.30;;
77280;SDS011;66339;47.262;17.144;2023-04-03T02:38:03;1.60;;;1.00;;
77280;SDS011;66339;47.262;17.144;2023-04-03T02:40:39;2.65;;;1.10;;
77280;SDS011;66339;47.262;17.144;2023-04-03T02:43:12;2.03;;;1.08;;
77280;SDS011;66339;47.262;17.144;2023-04-03T02:45:40;1.40;;;1.00;;
77280;SDS011;66339;47.262;17.144;2023-04-03T02:48:16;2.53;;;1.17;;
77280;SDS011;66339;47.262;17.144;2023-04-03T02:50:49;3.10;;;1.27;;
77280;SDS011;66339;47.262;17.144;2023-04-03T02:53:25;1.70;;;1.17;;
77280;SDS011;66339;47.262;17.144;2023-04-03T02:55:56;2.50;;;1.10;;
77280;SDS011;66339;47.262;17.144;2023-04-03T02:58:26;1.83;;;0.93;;
77280;SDS011;66339;47.262;17.144;2023-04-03T03:00:56;2.05;;;1.12;;
77280;SDS011;66339;47.262;17.144;2023-04-03T03:03:28;2.70;;;1.20;;
77280;SDS011;66339;47.262;17.144;2023-04-03T03:06:06;2.60;;;1.20;;
77280;SDS011;66339;47.262;17.144;2023-04-03T03:08:37;2.78;;;0.90;;
77280;SDS011;66339;47.262;17.144;2023-04-03T03:11:16;1.10;;;1.00;;
77280;SDS011;66339;47.262;17.144;2023-04-03T03:13:43;1.25;;;1.00;;
77280;SDS011;66339;47.262;17.144;2023-04-03T03:16:13;2.22;;;1.12;;
77280;SDS011;66339;47.262;17.144;2023-04-03T03:21:13;1.95;;;1.08;;
77280;SDS011;66339;47.262;17.144;2023-04-03T03:23:52;2.28;;;1.10;;
77280;SDS011;66339;47.262;17.144;2023-04-03T03:26:23;1.48;;;1.02;;
77280;SDS011;66339;47.262;17.144;2023-04-03T03:29:00;1.52;;;1.15;;
77280;SDS011;66339;47.262;17.144;2023-04-03T03:31:30;1.52;;;1.00;;
77280;SDS011;66339;47.262;17.144;2023-04-03T03:34:03;1.90;;;0.95;;
77280;SDS011;66339;47.262;17.144;2023-04-03T03:36:35;1.35;;;1.00;;
77280;SDS011;66339;47.262;17.144;2023-04-03T03:39:09;1.00;;;0.90;;
77280;SDS011;66339;47.262;17.144;2023-04-03T03:41:45;1.27;;;0.93;;
77280;SDS011;66339;47.262;17.144;2023-04-03T03:44:16;1.45;;;1.08;;
77280;SDS011;66339;47.262;17.144;2023-04-03T03:46:45;1.50;;;1.02;;
77280;SDS011;66339;47.262;17.144;2023-04-03T03:49:16;1.40;;;1.08;;
77280;SDS011;66339;47.262;17.144;2023-04-03T03:51:47;3.22;;;1.30;;
77280;SDS011;66339;47.262;17.144;2023-04-03T03:54:15;1.25;;;0.90;;
77280;SDS011;66339;47.262;17.144;2023-04-03T03:56:45;1.50;;;1.02;;
77280;SDS011;66339;47.262;17.144;2023-04-03T03:59:16;1.15;;;1.00;;
77280;SDS011;66339;47.262;17.144;2023-04-03T04:01:46;1.25;;;0.98;;
77280;SDS011;66339;47.262;17.144;2023-04-03T04:04:23;1.55;;;1.20;;
77280;SDS011;66339;47.262;17.144;2023-04-03T04:06:50;3.15;;;1.80;;
77280;SDS011;66339;47.262;17.144;2023-04-03T04:09:24;1.87;;;1.00;;
77280;SDS011;66339;47.262;17.144;2023-04-03T04:11:55;1.75;;;1.12;;
77280;SDS011;66339;47.262;17.144;2023-04-03T04:14:26;2.00;;;1.10;;
77280;SDS011;66339;47.262;17.144;2023-04-03T04:17:00;1.70;;;1.00;;
77280;SDS011;66339;47.262;17.144;2023-04-03T04:19:33;1.48;;;1.10;;
77280;SDS011;66339;47.262;17.144;2023-04-03T04:22:04;1.83;;;1.05;;
77280;SDS011;66339;47.262;17.144;2023-04-03T04:24:35;1.92;;;1.15;;
77280;SDS011;66339;47.262;17.144;2023-04-03T04:27:05;1.20;;;1.10;;
77280;SDS011;66339;47.262;17.144;2023-04-03T04:29:32;1.73;;;0.95;;
77280;SDS011;66339;47.262;17.144;2023-04-03T04:32:08;1.37;;;0.90;;
77280;SDS011;66339;47.262;17.144;2023-04-03T04:34:49;1.17;;;1.00;;
77280;SDS011;66339;47.262;17.144;2023-04-03T04:37:16;2.08;;;1.20;;
77280;SDS011;66339;47.262;17.144;2023-04-03T04:39:44;1.23;;;1.02;;
77280;SDS011;66339;47.262;17.144;2023-04-03T04:42:14;1.40;;;1.02;;
77280;SDS011;66339;47.262;17.144;2023-04-03T04:44:47;1.92;;;1.08;;
77280;SDS011;66339;47.262;17.144;2023-04-03T04:47:15;1.20;;;1.00;;
77280;SDS011;66339;47.262;17.144;2023-04-03T04:49:48;1.50;;;1.10;;
77280;SDS011;66339;47.262;17.144;2023-04-03T04:52:16;1.42;;;1.00;;
77280;SDS011;66339;47.262;17.144;2023-04-03T04:54:47;1.15;;;0.98;;
77280;SDS011;66339;47.262;17.144;2023-04-03T04:57:17;1.65;;;1.08;;
77280;SDS011;66339;47.262;17.144;2023-04-03T04:59:48;2.35;;;1.08;;
77280;SDS011;66339;47.262;17.144;2023-04-03T05:02:19;1.87;;;1.10;;
77280;SDS011;66339;47.262;17.144;2023-04-03T05:04:46;1.05;;;0.90;;
77280;SDS011;66339;47.262;17.144;2023-04-03T05:07:20;1.52;;;1.00;;
77280;SDS011;66339;47.262;17.144;2023-04-03T05:09:51;0.93;;;0.90;;
77280;SDS011;66339;47.262;17.144;2023-04-03T05:12:21;1.10;;;0.90;;
77280;SDS011;66339;47.262;17.144;2023-04-03T05:14:48;1.48;;;1.17;;
77280;SDS011;66339;47.262;17.144;2023-04-03T05:17:23;2.25;;;1.10;;
77280;SDS011;66339;47.262;17.144;2023-04-03T05:19:56;1.20;;;1.00;;
77280;SDS011;66339;47.262;17.144;2023-04-03T05:22:33;2.35;;;1.20;;
77280;SDS011;66339;47.262;17.144;2023-04-03T05:25:04;4.53;;;1.20;;
77280;SDS011;66339;47.262;17.144;2023-04-03T05:27:41;2.10;;;1.15;;
77280;SDS011;66339;47.262;17.144;2023-04-03T05:30:10;1.62;;;1.15;;
77280;SDS011;66339;47.262;17.144;2023-04-03T05:32:44;1.25;;;0.90;;
77280;SDS011;66339;47.262;17.144;2023-04-03T05:35:11;4.60;;;1.05;;
77280;SDS011;66339;47.262;17.144;2023-04-03T05:37:43;1.37;;;0.90;;
77280;SDS011;66339;47.262;17.144;2023-04-03T05:40:11;1.92;;;1.02;;
77280;SDS011;66339;47.262;17.144;2023-04-03T05:42:41;1.67;;;1.05;;
77280;SDS011;66339;47.262;17.144;2023-04-03T05:45:14;3.03;;;1.10;;
77280;SDS011;66339;47.262;17.144;2023-04-03T05:47:42;2.35;;;0.90;;
77280;SDS011;66339;47.262;17.144;2023-04-03T05:50:16;2.72;;;1.15;;
77280;SDS011;66339;47.262;17.144;2023-04-03T05:52:50;7.20;;;1.20;;
77280;SDS011;66339;47.262;17.144;2023-04-03T05:55:28;4.85;;;1.42;;
77280;SDS011;66339;47.262;17.144;2023-04-03T05:58:00;5.87;;;1.20;;
77280;SDS011;66339;47.262;17.144;2023-04-03T06:00:27;4.60;;;0.90;;
77280;SDS011;66339;47.262;17.144;2023-04-03T06:03:01;2.67;;;1.10;;
77280;SDS011;66339;47.262;17.144;2023-04-03T06:05:35;5.90;;;1.20;;
77280;SDS011;66339;47.262;17.144;2023-04-03T06:08:03;7.32;;;1.42;;
77280;SDS011;66339;47.262;17.144;2023-04-03T06:10:30;4.37;;;1.40;;
77280;SDS011;66339;47.262;17.144;2023-04-03T06:13:04;8.70;;;1.40;;
77280;SDS011;66339;47.262;17.144;2023-04-03T06:15:40;6.18;;;1.40;;
77280;SDS011;66339;47.262;17.144;2023-04-03T06:20:46;4.20;;;1.45;;
77280;SDS011;66339;47.262;17.144;2023-04-03T06:23:14;5.80;;;1.23;;
77280;SDS011;66339;47.262;17.144;2023-04-03T06:25:47;9.55;;;2.05;;
77280;SDS011;66339;47.262;17.144;2023-04-03T06:28:21;5.12;;;1.17;;
77280;SDS011;66339;47.262;17.144;2023-04-03T06:30:55;4.82;;;1.42;;
77280;SDS011;66339;47.262;17.144;2023-04-03T06:33:30;5.87;;;1.30;;
77280;SDS011;66339;47.262;17.144;2023-04-03T06:36:03;6.82;;;1.33;;
77280;SDS011;66339;47.262;17.144;2023-04-03T06:38:37;5.60;;;1.50;;
77280;SDS011;66339;47.262;17.144;2023-04-03T06:41:07;6.75;;;1.33;;
77280;SDS011;66339;47.262;17.144;2023-04-03T06:43:38;5.05;;;1.58;;
77280;SDS011;66339;47.262;17.144;2023-04-03T06:46:09;8.30;;;1.55;;
77280;SDS011;66339;47.262;17.144;2023-04-03T06:48:54;16.67;;;1.90;;
77280;SDS011;66339;47.262;17.144;2023-04-03T06:51:28;3.53;;;1.80;;
77280;SDS011;66339;47.262;17.144;2023-04-03T06:54:02;7.40;;;1.65;;
77280;SDS011;66339;47.262;17.144;2023-04-03T06:56:45;6.22;;;1.50;;
77280;SDS011;66339;47.262;17.144;2023-04-03T06:59:23;7.53;;;1.77;;
77280;SDS011;66339;47.262;17.144;2023-04-03T07:01:55;5.82;;;1.58;;
77280;SDS011;66339;47.262;17.144;2023-04-03T07:04:28;6.32;;;1.50;;
77280;SDS011;66339;47.262;17.144;2023-04-03T07:06:59;7.10;;;1.73;;
77280;SDS011;66339;47.262;17.144;2023-04-03T07:09:35;2.53;;;1.48;;
77280;SDS011;66339;47.262;17.144;2023-04-03T07:12:06;5.30;;;1.60;;
77280;SDS011;66339;47.262;17.144;2023-04-03T07:14:37;7.80;;;1.55;;
77280;SDS011;66339;47.262;17.144;2023-04-03T07:17:08;5.28;;;1.60;;
77280;SDS011;66339;47.262;17.144;2023-04-03T07:19:38;4.78;;;1.50;;
77280;SDS011;66339;47.262;17.144;2023-04-03T07:22:08;9.25;;;1.87;;
77280;SDS011;66339;47.262;17.144;2023-04-03T07:24:35;5.82;;;1.50;;
77280;SDS011;66339;47.262;17.144;2023-04-03T07:27:06;5.75;;;1.70;;
77280;SDS011;66339;47.262;17.144;2023-04-03T07:29:37;4.25;;;1.50;;
77280;SDS011;66339;47.262;17.144;2023-04-03T07:32:07;6.30;;;1.70;;
77280;SDS011;66339;47.262;17.144;2023-04-03T07:34:37;9.98;;;1.90;;
77280;SDS011;66339;47.262;17.144;2023-04-03T07:37:07;8.45;;;1.77;;
77280;SDS011;66339;47.262;17.144;2023-04-03T07:39:37;6.22;;;1.98;;
77280;SDS011;66339;47.262;17.144;2023-04-03T07:42:04;19.12;;;2.45;;
77280;SDS011;66339;47.262;17.144;2023-04-03T07:44:32;11.57;;;1.92;;
77280;SDS011;66339;47.262;17.144;2023-04-03T07:47:02;6.47;;;1.70;;
77280;SDS011;66339;47.262;17.144;2023-04-03T07:49:33;17.02;;;2.35;;
77280;SDS011;66339;47.262;17.144;2023-04-03T07:52:01;15.82;;;2.15;;
77280;SDS011;66339;47.262;17.144;2023-04-03T07:54:31;9.48;;;2.17;;
77280;SDS011;66339;47.262;17.144;2023-04-03T07:56:58;13.65;;;2.40;;
77280;SDS011;66339;47.262;17.144;2023-04-03T07:59:25;14.15;;;2.10;;
77280;SDS011;66339;47.262;17.144;2023-04-03T08:01:59;10.07;;;1.83;;
77280;SDS011;66339;47.262;17.144;2023-04-03T08:04:27;17.65;;;2.12;;
77280;SDS011;66339;47.262;17.144;2023-04-03T08:06:58;15.60;;;1.87;;
77280;SDS011;66339;47.262;17.144;2023-04-03T08:09:29;15.52;;;2.30;;
77280;SDS011;66339;47.262;17.144;2023-04-03T08:12:09;12.18;;;3.50;;
77280;SDS011;66339;47.262;17.144;2023-04-03T08:14:40;11.45;;;2.00;;
77280;SDS011;66339;47.262;17.144;2023-04-03T08:17:10;8.45;;;2.03;;
77280;SDS011;66339;47.262;17.144;2023-04-03T08:19:41;8.13;;;1.80;;
77280;SDS011;66339;47.262;17.144;2023-04-03T08:22:14;13.52;;;2.45;;
77280;SDS011;66339;47.262;17.144;2023-04-03T08:24:41;13.85;;;1.83;;
77280;SDS011;66339;47.262;17.144;2023-04-03T08:27:24;11.68;;;2.20;;
77280;SDS011;66339;47.262;17.144;2023-04-03T08:29:52;5.47;;;1.70;;
77280;SDS011;66339;47.262;17.144;2023-04-03T08:32:22;8.82;;;2.10;;
77280;SDS011;66339;47.262;17.144;2023-04-03T08:34:50;12.70;;;2.00;;
77280;SDS011;66339;47.262;17.144;2023-04-03T08:37:16;14.90;;;2.33;;
77280;SDS011;66339;47.262;17.144;2023-04-03T08:39:47;14.02;;;2.40;;
77280;SDS011;66339;47.262;17.144;2023-04-03T08:42:23;10.00;;;2.47;;
77280;SDS011;66339;47.262;17.144;2023-04-03T08:45:48;12.32;;;2.25;;
77280;SDS011;66339;47.262;17.144;2023-04-03T08:48:06;9.57;;;1.90;;
77280;SDS011;66339;47.262;17.144;2023-04-03T08:50:40;5.93;;;1.67;;
77280;SDS011;66339;47.262;17.144;2023-04-03T08:53:18;4.85;;;1.70;;
77280;SDS011;66339;47.262;17.144;2023-04-03T08:55:55;7.62;;;2.00;;
77280;SDS011;66339;47.262;17.144;2023-04-03T08:58:39;3.50;;;1.75;;
77280;SDS011;66339;47.262;17.144;2023-04-03T09:03:56;7.62;;;1.40;;
77280;SDS011;66339;47.262;17.144;2023-04-03T09:06:28;6.45;;;2.08;;
77280;SDS011;66339;47.262;17.144;2023-04-03T09:19:58;3.03;;;1.30;;
77280;SDS011;66339;47.262;17.144;2023-04-03T09:22:54;2.83;;;1.50;;
77280;SDS011;66339;47.262;17.144;2023-04-03T09:25:35;2.62;;;1.40;;
77280;SDS011;66339;47.262;17.144;2023-04-03T09:28:07;8.48;;;1.75;;
77280;SDS011;66339;47.262;17.144;2023-04-03T09:30:38;2.67;;;1.45;;
77280;SDS011;66339;47.262;17.144;2023-04-03T09:33:06;7.25;;;1.40;;
77280;SDS011;66339;47.262;17.144;2023-04-03T09:35:37;3.37;;;1.27;;
77280;SDS011;66339;47.262;17.144;2023-04-03T09:38:20;3.37;;;1.40;;
77280;SDS011;66339;47.262;17.144;2023-04-03T09:41:02;1.77;;;1.30;;
77280;SDS011;66339;47.262;17.144;2023-04-03T09:43:36;2.25;;;1.42;;
77280;SDS011;66339;47.262;17.144;2023-04-03T09:46:20;3.12;;;1.23;;
77280;SDS011;66339;47.262;17.144;2023-04-03T09:49:01;3.78;;;1.30;;
77280;SDS011;66339;47.262;17.144;2023-04-03T09:51:40;14.57;;;2.05;;
77280;SDS011;66339;47.262;17.144;2023-04-03T09:54:25;6.50;;;1.65;;
77280;SDS011;66339;47.262;17.144;2023-04-03T09:57:02;10.30;;;1.87;;
77280;SDS011;66339;47.262;17.144;2023-04-03T09:59:40;15.38;;;1.77;;
77280;SDS011;66339;47.262;17.144;2023-04-03T10:04:56;5.97;;;1.95;;
77280;SDS011;66339;47.262;17.144;2023-04-03T10:07:32;9.38;;;1.75;;
77280;SDS011;66339;47.262;17.144;2023-04-03T10:10:25;7.80;;;1.75;;
77280;SDS011;66339;47.262;17.144;2023-04-03T10:13:03;11.07;;;2.22;;
77280;SDS011;66339;47.262;17.144;2023-04-03T10:15:44;5.68;;;1.90;;
77280;SDS011;66339;47.262;17.144;2023-04-03T10:20:57;4.28;;;1.87;;
77280;SDS011;66339;47.262;17.144;2023-04-03T10:23:48;5.20;;;2.10;;
77280;SDS011;66339;47.262;17.144;2023-04-03T10:35:34;20.17;;;1.92;;
77280;SDS011;66339;47.262;17.144;2023-04-03T10:41:12;7.45;;;1.73;;
77280;SDS011;66339;47.262;17.144;2023-04-03T10:46:53;5.65;;;1.77;;
77280;SDS011;66339;47.262;17.144;2023-04-03T10:57:36;3.35;;;1.45;;
77280;SDS011;66339;47.262;17.144;2023-04-03T11:00:05;4.22;;;1.90;;
77280;SDS011;66339;47.262;17.144;2023-04-03T11:02:49;4.00;;;1.60;;
77280;SDS011;66339;47.262;17.144;2023-04-03T11:11:01;4.37;;;1.70;;
77280;SDS011;66339;47.262;17.144;2023-04-03T11:13:37;3.95;;;1.50;;
77280;SDS011;66339;47.262;17.144;2023-04-03T11:16:14;7.97;;;1.77;;
77280;SDS011;66339;47.262;17.144;2023-04-03T11:18:51;5.87;;;1.42;;
77280;SDS011;66339;47.262;17.144;2023-04-03T11:21:46;12.70;;;1.92;;
77280;SDS011;66339;47.262;17.144;2023-04-03T11:24:27;8.35;;;1.73;;
77280;SDS011;66339;47.262;17.144;2023-04-03T11:27:00;6.75;;;1.48;;
77280;SDS011;66339;47.262;17.144;2023-04-03T11:29:35;5.95;;;2.00;;
77280;SDS011;66339;47.262;17.144;2023-04-03T11:37:17;4.93;;;1.70;;
77280;SDS011;66339;47.262;17.144;2023-04-03T11:39:56;5.43;;;1.40;;
77280;SDS011;66339;47.262;17.144;2023-04-03T11:47:57;7.77;;;1.60;;
77280;SDS011;66339;47.262;17.144;2023-04-03T11:50:55;6.22;;;2.20;;
77280;SDS011;66339;47.262;17.144;2023-04-03T11:53:26;3.00;;;1.30;;
77280;SDS011;66339;47.262;17.144;2023-04-03T11:59:25;5.05;;;1.50;;
77280;SDS011;66339;47.262;17.144;2023-04-03T12:01:53;5.00;;;1.50;;
77280;SDS011;66339;47.262;17.144;2023-04-03T12:04:23;6.45;;;1.45;;
77280;SDS011;66339;47.262;17.144;2023-04-03T12:07:16;4.55;;;1.40;;
77280;SDS011;66339;47.262;17.144;2023-04-03T12:12:24;3.95;;;1.70;;
77280;SDS011;66339;47.262;17.144;2023-04-03T12:29:54;3.30;;;1.50;;
77280;SDS011;66339;47.262;17.144;2023-04-03T12:36:13;4.35;;;1.45;;
77280;SDS011;66339;47.262;17.144;2023-04-03T12:38:55;4.47;;;1.27;;
77280;SDS011;66339;47.262;17.144;2023-04-03T12:41:44;6.85;;;1.45;;
77280;SDS011;66339;47.262;17.144;2023-04-03T12:44:44;3.20;;;1.40;;
77280;SDS011;66339;47.262;17.144;2023-04-03T12:47:57;3.95;;;1.65;;
77280;SDS011;66339;47.262;17.144;2023-04-03T12:50:27;4.15;;;1.60;;
77280;SDS011;66339;47.262;17.144;2023-04-03T12:53:05;7.05;;;2.03;;
77280;SDS011;66339;47.262;17.144;2023-04-03T12:55:42;3.00;;;1.50;;
77280;SDS011;66339;47.262;17.144;2023-04-03T12:58:27;4.15;;;1.65;;
77280;SDS011;66339;47.262;17.144;2023-04-03T13:01:29;3.62;;;1.65;;
77280;SDS011;66339;47.262;17.144;2023-04-03T13:03:55;3.10;;;1.40;;
77280;SDS011;66339;47.262;17.144;2023-04-03T13:06:30;2.80;;;1.45;;
77280;SDS011;66339;47.262;17.144;2023-04-03T13:09:29;5.28;;;1.70;;
77280;SDS011;66339;47.262;17.144;2023-04-03T13:12:02;2.67;;;1.50;;
77280;SDS011;66339;47.262;17.144;2023-04-03T13:14:40;8.15;;;1.50;;
77280;SDS011;66339;47.262;17.144;2023-04-03T13:17:18;5.47;;;1.92;;
77280;SDS011;66339;47.262;17.144;2023-04-03T13:19:46;3.47;;;1.50;;
77280;SDS011;66339;47.262;17.144;2023-04-03T13:22:27;3.08;;;1.45;;
77280;SDS011;66339;47.262;17.144;2023-04-03T13:25:00;3.15;;;1.77;;
77280;SDS011;66339;47.262;17.144;2023-04-03T13:27:33;10.60;;;1.83;;
77280;SDS011;66339;47.262;17.144;2023-04-03T13:30:00;6.85;;;1.77;;
77280;SDS011;66339;47.262;17.144;2023-04-03T13:32:37;3.05;;;1.70;;
77280;SDS011;66339;47.262;17.144;2023-04-03T13:35:24;15.35;;;2.28;;
77280;SDS011;66339;47.262;17.144;2023-04-03T13:38:26;6.47;;;1.67;;
77280;SDS011;66339;47.262;17.144;2023-04-03T13:40:57;5.15;;;1.70;;
77280;SDS011;66339;47.262;17.144;2023-04-03T13:43:28;4.53;;;1.33;;
77280;SDS011;66339;47.262;17.144;2023-04-03T13:48:43;6.70;;;1.42;;
77280;SDS011;66339;47.262;17.144;2023-04-03T13:51:17;6.70;;;1.70;;
77280;SDS011;66339;47.262;17.144;2023-04-03T13:53:54;4.43;;;1.40;;
77280;SDS011;66339;47.262;17.144;2023-04-03T14:01:45;3.83;;;1.75;;
77280;SDS011;66339;47.262;17.144;2023-04-03T14:04:46;3.83;;;1.62;;
77280;SDS011;66339;47.262;17.144;2023-04-03T14:07:19;4.40;;;1.52;;
77280;SDS011;66339;47.262;17.144;2023-04-03T14:09:50;3.15;;;1.30;;
77280;SDS011;66339;47.262;17.144;2023-04-03T14:12:26;2.90;;;1.40;;
77280;SDS011;66339;47.262;17.144;2023-04-03T14:14:57;4.40;;;1.83;;
77280;SDS011;66339;47.262;17.144;2023-04-03T14:17:30;3.80;;;1.60;;
77280;SDS011;66339;47.262;17.144;2023-04-03T14:20:02;5.18;;;1.70;;
77280;SDS011;66339;47.262;17.144;2023-04-03T14:22:33;6.25;;;1.60;;
77280;SDS011;66339;47.262;17.144;2023-04-03T14:25:04;5.65;;;1.55;;
77280;SDS011;66339;47.262;17.144;2023-04-03T14:27:36;5.90;;;1.85;;
77280;SDS011;66339;47.262;17.144;2023-04-03T14:30:12;4.20;;;1.85;;
77280;SDS011;66339;47.262;17.144;2023-04-03T14:32:50;4.82;;;1.40;;
77280;SDS011;66339;47.262;17.144;2023-04-03T14:35:24;7.35;;;2.10;;
77280;SDS011;66339;47.262;17.144;2023-04-03T14:37:55;7.57;;;1.97;;
77280;SDS011;66339;47.262;17.144;2023-04-03T14:40:26;6.95;;;1.73;;
77280;SDS011;66339;47.262;17.144;2023-04-03T14:42:57;5.28;;;1.70;;
77280;SDS011;66339;47.262;17.144;2023-04-03T14:45:27;4.90;;;1.50;;
77280;SDS011;66339;47.262;17.144;2023-04-03T14:47:59;5.68;;;1.67;;
77280;SDS011;66339;47.262;17.144;2023-04-03T14:50:27;4.90;;;1.60;;
77280;SDS011;66339;47.262;17.144;2023-04-03T14:52:57;3.40;;;1.52;;
77280;SDS011;66339;47.262;17.144;2023-04-03T14:55:25;6.55;;;1.90;;
77280;SDS011;66339;47.262;17.144;2023-04-03T14:57:56;8.43;;;1.60;;
77280;SDS011;66339;47.262;17.144;2023-04-03T15:00:23;6.53;;;1.58;;
77280;SDS011;66339;47.262;17.144;2023-04-03T15:02:56;5.85;;;1.75;;
77280;SDS011;66339;47.262;17.144;2023-04-03T15:05:28;6.60;;;1.85;;
77280;SDS011;66339;47.262;17.144;2023-04-03T15:07:58;7.07;;;2.60;;
77280;SDS011;66339;47.262;17.144;2023-04-03T15:10:27;13.20;;;3.85;;
77280;SDS011;66339;47.262;17.144;2023-04-03T15:12:56;10.43;;;4.37;;
77280;SDS011;66339;47.262;17.144;2023-04-03T15:15:24;13.25;;;5.43;;
77280;SDS011;66339;47.262;17.144;2023-04-03T15:17:57;19.95;;;6.35;;
77280;SDS011;66339;47.262;17.144;2023-04-03T15:20:27;23.12;;;8.25;;
77280;SDS011;66339;47.262;17.144;2023-04-03T15:22:57;19.23;;;7.80;;
77280;SDS011;66339;47.262;17.144;2023-04-03T15:25:24;19.80;;;8.27;;
77280;SDS011;66339;47.262;17.144;2023-04-03T15:27:53;22.60;;;9.20;;
77280;SDS011;66339;47.262;17.144;2023-04-03T15:30:25;24.10;;;9.52;;
77280;SDS011;66339;47.262;17.144;2023-04-03T15:32:52;19.75;;;9.23;;
77280;SDS011;66339;47.262;17.144;2023-04-03T15:35:23;20.30;;;9.38;;
77280;SDS011;66339;47.262;17.144;2023-04-03T15:37:56;25.05;;;10.50;;
77280;SDS011;66339;47.262;17.144;2023-04-03T15:40:26;25.75;;;10.30;;
77280;SDS011;66339;47.262;17.144;2023-04-03T15:42:53;34.53;;;11.45;;
77280;SDS011;66339;47.262;17.144;2023-04-03T15:45:20;27.08;;;11.45;;
77280;SDS011;66339;47.262;17.144;2023-04-03T15:47:50;28.08;;;11.07;;
77280;SDS011;66339;47.262;17.144;2023-04-03T15:50:21;29.80;;;11.75;;
77280;SDS011;66339;47.262;17.144;2023-04-03T15:52:48;25.08;;;11.55;;
77280;SDS011;66339;47.262;17.144;2023-04-03T15:55:15;27.05;;;12.73;;
77280;SDS011;66339;47.262;17.144;2023-04-03T15:57:42;30.85;;;12.93;;
77280;SDS011;66339;47.262;17.144;2023-04-03T16:00:09;28.85;;;12.25;;
77280;SDS011;66339;47.262;17.144;2023-04-03T16:02:37;33.75;;;12.95;;
77280;SDS011;66339;47.262;17.144;2023-04-03T16:05:14;30.83;;;12.63;;
77280;SDS011;66339;47.262;17.144;2023-04-03T16:07:45;19.42;;;9.05;;
77280;SDS011;66339;47.262;17.144;2023-04-03T16:10:14;68.60;;;11.15;;
77280;SDS011;66339;47.262;17.144;2023-04-03T16:12:43;29.87;;;10.15;;
77280;SDS011;66339;47.262;17.144;2023-04-03T16:15:11;30.92;;;10.27;;
77280;SDS011;66339;47.262;17.144;2023-04-03T16:17:39;27.70;;;10.88;;
77280;SDS011;66339;47.262;17.144;2023-04-03T16:20:12;30.65;;;12.18;;
77280;SDS011;66339;47.262;17.144;2023-04-03T16:22:44;26.83;;;11.73;;
77280;SDS011;66339;47.262;17.144;2023-04-03T16:25:12;34.03;;;12.18;;
77280;SDS011;66339;47.262;17.144;2023-04-03T16:27:42;27.30;;;11.60;;
77280;SDS011;66339;47.262;17.144;2023-04-03T16:30:10;24.52;;;11.57;;
77280;SDS011;66339;47.262;17.144;2023-04-03T16:32:44;35.25;;;12.20;;
77280;SDS011;66339;47.262;17.144;2023-04-03T16:35:12;22.42;;;10.52;;
77280;SDS011;66339;47.262;17.144;2023-04-03T16:37:46;24.50;;;11.80;;
77280;SDS011;66339;47.262;17.144;2023-04-03T16:40:17;25.58;;;12.98;;
77280;SDS011;66339;47.262;17.144;2023-04-03T16:42:54;25.80;;;11.55;;
77280;SDS011;66339;47.262;17.144;2023-04-03T16:45:25;33.25;;;13.50;;
77280;SDS011;66339;47.262;17.144;2023-04-03T16:47:59;22.98;;;10.88;;
77280;SDS011;66339;47.262;17.144;2023-04-03T16:50:26;22.02;;;9.57;;
77280;SDS011;66339;47.262;17.144;2023-04-03T16:52:54;27.83;;;10.93;;